< < Back
Terminal Aerodrome Forecast


Current Version              Previous Versions:   1  2  3  4  5  6  7  8  9  

Terminal Aerodrome Forecast

455
FTUS42 KJAX 270056 AAA
TAFSSI
TAF AMD
KSSI 270056Z 2701/2724 19006KT P6SM SCT250
     FM270900 24005KT P6SM SKC
     FM271400 25006KT P6SM SCT030
     FM271700 16009KT P6SM SCT040=

Latest METAR

236
SAUS70 KWBC 271700
MTRSSI
METAR KSSI 271653Z AUTO 27009KT 10SM FEW050 34/21 A3008 RMK AO2 SLP187
T03390211


USA.gov is the U.S. government's official web portal to all federal, state and local government web resources and services.